This is the latest recevied weather packets stored in our database for station/object VK4HIT-13. If no packets are shown the sender has not sent any weather packets the latest 10 day(s).
| Time | Temp. | Humidity | Pressure | Rain* | Wind** | Luminosity | Snow |
|---|---|---|---|---|---|---|---|
| 1777515581 | 20° C | 79% | 1025.8 hPa | 0 mm | - | - | - |
| 1777515281 | 20° C | 79% | 1025.9 hPa | 0 mm | - | - | - |
| 1777514981 | 20° C | 81% | 1026.1 hPa | 0 mm | - | - | - |
| 1777514681 | 19.44° C | 82% | 1026 hPa | 0.25 mm | - | - | - |
| 1777514381 | 19.44° C | 82% | 1026.1 hPa | 0.25 mm | - | - | - |
| 1777514081 | 19.44° C | 83% | 1026.1 hPa | 0.25 mm | - | - | - |
| 1777513781 | 19.44° C | 82% | 1026.1 hPa | 0.25 mm | - | - | - |
| 1777513481 | 19.44° C | 82% | 1026.2 hPa | 0.25 mm | - | - | - |
| 1777513181 | 19.44° C | 84% | 1026.4 hPa | 0.25 mm | - | - | - |
| 1777512881 | 18.89° C | 85% | 1026.3 hPa | 0.25 mm | - | - | - |
| 1777512581 | 18.89° C | 85% | 1026.4 hPa | 0.25 mm | - | - | - |
| 1777512281 | 18.89° C | 85% | 1026.6 hPa | 0.25 mm | - | - | - |
| 1777511981 | 18.89° C | 84% | 1026.8 hPa | 0.25 mm | - | - | - |
| 1777511681 | 18.89° C | 84% | 1026.8 hPa | 0.25 mm | - | - | - |
| 1777511381 | 18.89° C | 82% | 1026.9 hPa | 0.25 mm | - | - | - |
| 1777511081 | 19.44° C | 78% | 1027.1 hPa | 0 mm | - | - | - |
| 1777510781 | 21.11° C | 70% | 1026.9 hPa | 0 mm | - | - | - |
| 1777510481 | 22.22° C | 65% | 1026.6 hPa | 0 mm | - | - | - |
| 1777510181 | 22.22° C | 65% | 1026.5 hPa | 0 mm | - | - | - |
| 1777509883 | 22.22° C | 65% | 1026.5 hPa | 0 mm | - | - | - |
| 1777509581 | 22.22° C | 65% | 1026.5 hPa | 0 mm | - | - | - |
| 1777509281 | 21.67° C | 66% | 1026.5 hPa | 0 mm | - | - | - |
| 1777508981 | 21.67° C | 65% | 1026.6 hPa | 0 mm | - | - | - |
| 1777508681 | 21.67° C | 66% | 1026.7 hPa | 0 mm | - | - | - |
| 1777508381 | 21.67° C | 66% | 1026.7 hPa | 0 mm | - | - | - |
* Rain latest hour (hover to see other rain measurements)
** Current wind speed in m/s (hover to see current wind gust speed)